Portada
METAR-TAF:

METAR-TAF

Aeropuertos :

Gibraltar, Gibraltar

Aeropuerto de Gibraltar

latitud: 36-09N, longitud: 005-21W, altitud: 5 m

Observación

El informe se hizo hace 39 minutos, a las 18:50 UTC
Viento 7 kt del este-noreste
Temperatura 25°C
Humedad 89%
Presión 1016 hPa
Visibilidad: 8000 m
Escasas nubes a una altura de 600 ft
calima

METAR: LXGB 171850Z 07007KT 8000 HZ FEW006 25/23 Q1016 TEMPO 6000

Hora: 21:29 (19:29 UTC)

Pronóstico

El informe se hizo hace 2 horas y 51 minutos, a las 16:38 UTC
Pronóstico válido del 17 a las 18 UTC al 17 a las 22 UTC
Viento 12 kt del este
Visibilidad: 9000 m
Escasas nubes a una altura de 800 ft
calima
Temporalmente
del 17 a las 18 UTC al 17 a las 22 UTC
Visibilidad: 6000 m
Probabilidad 30% :
Temporalmente
del 17 a las 19 UTC al 17 a las 22 UTC
Visibilidad: 4500 m
Nubes dispersas a una altura de 1000 ft
neblina

TAF: LXGB 171638Z 1718/1722 10012KT 9000 HZ FEW008 TEMPO 1718/1722 6000 PROB30 TEMPO 1719/1722 4500 BR SCT010

Observaciones y pronósticos meteorológicos de más de 4000 aeropuertos (mensajes METAR y TAF).

Los puntos amarillos y rojos representan las estaciones disponibles.

Ponga el ratón en el punto deseado para ver el nombre de la estación.

Haga clic para ver las observaciones y los pronósticos meteorológicos.

Para cambiar el mapa : haga clic en los botones verdes con una cruz de color negro para hacer un zoom, en el botón verde con un guión para alejar o en las flechas verdes para mapas adyacentes.


METAR-TAF: